sensor_id;sensor_type;location;lat;lon;timestamp;pressure;altitude;pressure_sealevel;temperature;humidity
78073;BME280;67281;48.770;11.440;2024-01-27T00:00:50;98759.72;;;15.95;49.40
78073;BME280;67281;48.770;11.440;2024-01-27T00:03:18;98763.09;;;15.97;48.85
78073;BME280;67281;48.770;11.440;2024-01-27T00:05:45;98772.72;;;15.98;49.38
78073;BME280;67281;48.770;11.440;2024-01-27T00:08:12;98785.09;;;15.98;49.16
78073;BME280;67281;48.770;11.440;2024-01-27T00:10:38;98789.66;;;15.96;49.46
78073;BME280;67281;48.770;11.440;2024-01-27T00:13:08;98788.16;;;15.92;49.20
78073;BME280;67281;48.770;11.440;2024-01-27T00:15:35;98767.97;;;15.91;49.72
78073;BME280;67281;48.770;11.440;2024-01-27T00:18:02;98779.28;;;15.93;49.28
78073;BME280;67281;48.770;11.440;2024-01-27T00:20:29;98772.41;;;15.90;49.54
78073;BME280;67281;48.770;11.440;2024-01-27T00:22:56;98788.16;;;15.92;49.24
78073;BME280;67281;48.770;11.440;2024-01-27T00:25:23;98777.69;;;15.90;49.61
78073;BME280;67281;48.770;11.440;2024-01-27T00:27:50;98784.66;;;15.91;49.05
78073;BME280;67281;48.770;11.440;2024-01-27T00:30:16;98775.16;;;15.89;49.04
78073;BME280;67281;48.770;11.440;2024-01-27T00:32:43;98774.09;;;15.91;49.39
78073;BME280;67281;48.770;11.440;2024-01-27T00:35:10;98772.59;;;15.87;49.44
78073;BME280;67281;48.770;11.440;2024-01-27T00:37:41;98773.66;;;15.85;48.89
78073;BME280;67281;48.770;11.440;2024-01-27T00:40:09;98777.44;;;15.81;49.20
78073;BME280;67281;48.770;11.440;2024-01-27T00:42:37;98768.38;;;15.85;49.19
78073;BME280;67281;48.770;11.440;2024-01-27T00:45:05;98762.97;;;15.86;49.99
78073;BME280;67281;48.770;11.440;2024-01-27T00:47:32;98768.16;;;15.88;48.95
78073;BME280;67281;48.770;11.440;2024-01-27T00:49:59;98770.81;;;15.88;48.93
78073;BME280;67281;48.770;11.440;2024-01-27T00:52:26;98769.13;;;15.87;49.70
78073;BME280;67281;48.770;11.440;2024-01-27T00:54:53;98771.56;;;15.90;48.91
78073;BME280;67281;48.770;11.440;2024-01-27T00:57:20;98774.19;;;15.90;48.87
78073;BME280;67281;48.770;11.440;2024-01-27T00:59:47;98787.50;;;15.88;49.33
78073;BME280;67281;48.770;11.440;2024-01-27T01:02:14;98790.25;;;15.87;48.95
78073;BME280;67281;48.770;11.440;2024-01-27T01:04:41;98799.16;;;15.86;48.76
78073;BME280;67281;48.770;11.440;2024-01-27T01:07:09;98799.34;;;15.83;49.70
78073;BME280;67281;48.770;11.440;2024-01-27T01:09:36;98794.06;;;15.83;49.34
78073;BME280;67281;48.770;11.440;2024-01-27T01:12:03;98795.75;;;15.84;49.33
78073;BME280;67281;48.770;11.440;2024-01-27T01:14:30;98807.19;;;15.84;49.17
78073;BME280;67281;48.770;11.440;2024-01-27T01:16:56;98807.56;;;15.78;49.52
78073;BME280;67281;48.770;11.440;2024-01-27T01:19:23;98800.59;;;15.77;48.98
78073;BME280;67281;48.770;11.440;2024-01-27T01:21:50;98810.13;;;15.80;49.31
78073;BME280;67281;48.770;11.440;2024-01-27T01:24:17;98805.69;;;15.80;49.56
78073;BME280;67281;48.770;11.440;2024-01-27T01:26:44;98804.63;;;15.83;48.78
78073;BME280;67281;48.770;11.440;2024-01-27T01:29:10;98804.84;;;15.80;49.29
78073;BME280;67281;48.770;11.440;2024-01-27T01:31:37;98813.72;;;15.78;49.61
78073;BME280;67281;48.770;11.440;2024-01-27T01:34:04;98814.84;;;15.74;49.31
78073;BME280;67281;48.770;11.440;2024-01-27T01:36:31;98827.13;;;15.75;49.07
78073;BME280;67281;48.770;11.440;2024-01-27T01:38:58;98833.34;;;15.74;49.01
78073;BME280;67281;48.770;11.440;2024-01-27T01:41:25;98836.94;;;15.73;49.26
78073;BME280;67281;48.770;11.440;2024-01-27T01:43:52;98840.53;;;15.72;48.78
78073;BME280;67281;48.770;11.440;2024-01-27T01:46:19;98838.53;;;15.76;49.25
78073;BME280;67281;48.770;11.440;2024-01-27T01:48:46;98842.97;;;15.75;49.33
78073;BME280;67281;48.770;11.440;2024-01-27T01:51:13;98841.59;;;15.70;48.74
78073;BME280;67281;48.770;11.440;2024-01-27T01:53:41;98842.31;;;15.59;49.41
78073;BME280;67281;48.770;11.440;2024-01-27T01:56:08;98840.53;;;15.60;49.24
78073;BME280;67281;48.770;11.440;2024-01-27T01:58:35;98844.38;;;15.54;49.38
78073;BME280;67281;48.770;11.440;2024-01-27T02:01:02;98852.69;;;15.48;49.01
78073;BME280;67281;48.770;11.440;2024-01-27T02:03:29;98848.91;;;15.52;49.67
78073;BME280;67281;48.770;11.440;2024-01-27T02:05:56;98848.16;;;15.50;49.33
78073;BME280;67281;48.770;11.440;2024-01-27T02:08:23;98847.88;;;15.55;49.45
78073;BME280;67281;48.770;11.440;2024-01-27T02:10:50;98845.13;;;15.56;49.32
78073;BME280;67281;48.770;11.440;2024-01-27T02:13:24;98848.06;;;15.52;49.49
78073;BME280;67281;48.770;11.440;2024-01-27T02:15:51;98844.47;;;15.53;48.99
78073;BME280;67281;48.770;11.440;2024-01-27T02:18:18;98846.84;;;15.57;49.26
78073;BME280;67281;48.770;11.440;2024-01-27T02:20:45;98854.38;;;15.49;49.33
78073;BME280;67281;48.770;11.440;2024-01-27T02:23:12;98856.09;;;15.50;49.25
78073;BME280;67281;48.770;11.440;2024-01-27T02:25:39;98859.47;;;15.52;48.75
78073;BME280;67281;48.770;11.440;2024-01-27T02:28:06;98857.31;;;15.44;49.01
78073;BME280;67281;48.770;11.440;2024-01-27T02:30:33;98859.31;;;15.41;49.48
78073;BME280;67281;48.770;11.440;2024-01-27T02:33:00;98860.16;;;15.41;49.14
78073;BME280;67281;48.770;11.440;2024-01-27T02:35:27;98858.00;;;15.34;49.21
78073;BME280;67281;48.770;11.440;2024-01-27T02:37:53;98860.84;;;15.31;49.25
78073;BME280;67281;48.770;11.440;2024-01-27T02:40:20;98862.44;;;15.33;49.42
78073;BME280;67281;48.770;11.440;2024-01-27T02:42:47;98863.00;;;15.38;49.50
78073;BME280;67281;48.770;11.440;2024-01-27T02:45:14;98866.19;;;15.43;49.26
78073;BME280;67281;48.770;11.440;2024-01-27T02:47:41;98872.13;;;15.47;49.47
78073;BME280;67281;48.770;11.440;2024-01-27T02:50:08;98875.63;;;15.48;48.96
78073;BME280;67281;48.770;11.440;2024-01-27T02:52:35;98879.09;;;15.48;49.25
78073;BME280;67281;48.770;11.440;2024-01-27T02:55:02;98873.81;;;15.48;49.23
78073;BME280;67281;48.770;11.440;2024-01-27T02:57:29;98878.34;;;15.46;49.13
78073;BME280;67281;48.770;11.440;2024-01-27T02:59:56;98880.25;;;15.44;49.23
78073;BME280;67281;48.770;11.440;2024-01-27T03:02:23;98884.78;;;15.42;48.91
78073;BME280;67281;48.770;11.440;2024-01-27T03:04:50;98886.47;;;15.43;49.32
78073;BME280;67281;48.770;11.440;2024-01-27T03:07:17;98894.50;;;15.41;49.01
78073;BME280;67281;48.770;11.440;2024-01-27T03:09:43;98894.97;;;15.48;48.83
78073;BME280;67281;48.770;11.440;2024-01-27T03:12:10;98892.91;;;15.39;49.32
78073;BME280;67281;48.770;11.440;2024-01-27T03:14:37;98894.31;;;15.44;49.44
78073;BME280;67281;48.770;11.440;2024-01-27T03:17:04;98901.38;;;15.44;48.86
78073;BME280;67281;48.770;11.440;2024-01-27T03:19:31;98903.06;;;15.45;49.41
78073;BME280;67281;48.770;11.440;2024-01-27T03:21:58;98905.72;;;15.45;49.66
78073;BME280;67281;48.770;11.440;2024-01-27T03:24:24;98907.59;;;15.43;48.61
78073;BME280;67281;48.770;11.440;2024-01-27T03:26:51;98914.78;;;15.41;48.94
78073;BME280;67281;48.770;11.440;2024-01-27T03:29:18;98920.25;;;15.38;48.93
78073;BME280;67281;48.770;11.440;2024-01-27T03:31:45;98913.47;;;15.34;49.09
78073;BME280;67281;48.770;11.440;2024-01-27T03:34:12;98924.22;;;15.31;49.29
78073;BME280;67281;48.770;11.440;2024-01-27T03:36:39;98934.78;;;15.31;49.26
78073;BME280;67281;48.770;11.440;2024-01-27T03:39:06;98929.50;;;15.31;49.30
78073;BME280;67281;48.770;11.440;2024-01-27T03:41:35;98931.38;;;15.29;48.74
78073;BME280;67281;48.770;11.440;2024-01-27T03:44:01;98939.31;;;15.29;49.35
78073;BME280;67281;48.770;11.440;2024-01-27T03:46:28;98940.34;;;15.26;48.66
78073;BME280;67281;48.770;11.440;2024-01-27T03:48:55;98934.13;;;15.27;49.08
78073;BME280;67281;48.770;11.440;2024-01-27T03:51:23;98936.66;;;15.29;49.05
78073;BME280;67281;48.770;11.440;2024-01-27T03:53:51;98939.22;;;15.30;49.24
78073;BME280;67281;48.770;11.440;2024-01-27T03:56:17;98936.47;;;15.32;49.21
78073;BME280;67281;48.770;11.440;2024-01-27T03:58:44;98937.44;;;15.31;49.12
78073;BME280;67281;48.770;11.440;2024-01-27T04:01:11;98940.63;;;15.36;48.55
78073;BME280;67281;48.770;11.440;2024-01-27T04:03:38;98941.56;;;15.35;49.26
78073;BME280;67281;48.770;11.440;2024-01-27T04:06:05;98941.66;;;15.33;48.58
78073;BME280;67281;48.770;11.440;2024-01-27T04:08:32;98940.91;;;15.31;49.16
78073;BME280;67281;48.770;11.440;2024-01-27T04:10:59;98939.13;;;15.32;49.11
78073;BME280;67281;48.770;11.440;2024-01-27T04:13:26;98941.19;;;15.27;48.74
78073;BME280;67281;48.770;11.440;2024-01-27T04:15:53;98933.19;;;15.28;49.06
78073;BME280;67281;48.770;11.440;2024-01-27T04:18:20;98937.91;;;15.23;48.82
78073;BME280;67281;48.770;11.440;2024-01-27T04:20:47;98929.97;;;15.23;49.46
78073;BME280;67281;48.770;11.440;2024-01-27T04:23:15;98933.47;;;15.24;49.04
78073;BME280;67281;48.770;11.440;2024-01-27T04:25:43;98938.94;;;15.21;49.06
78073;BME280;67281;48.770;11.440;2024-01-27T04:28:11;98941.56;;;15.21;49.24
78073;BME280;67281;48.770;11.440;2024-01-27T04:30:39;98946.28;;;15.16;48.97
78073;BME280;67281;48.770;11.440;2024-01-27T04:33:06;98951.56;;;15.16;49.13
78073;BME280;67281;48.770;11.440;2024-01-27T04:35:34;98953.47;;;15.13;49.13
78073;BME280;67281;48.770;11.440;2024-01-27T04:38:02;98964.78;;;15.16;48.56
78073;BME280;67281;48.770;11.440;2024-01-27T04:40:30;98963.25;;;15.11;48.95
78073;BME280;67281;48.770;11.440;2024-01-27T04:42:57;98963.53;;;15.07;49.25
78073;BME280;67281;48.770;11.440;2024-01-27T04:45:24;98960.81;;;15.08;49.08
78073;BME280;67281;48.770;11.440;2024-01-27T04:47:51;98968.91;;;15.05;48.88
78073;BME280;67281;48.770;11.440;2024-01-27T04:50:18;98965.88;;;14.97;49.36
78073;BME280;67281;48.770;11.440;2024-01-27T04:52:45;98961.19;;;15.02;48.89
78073;BME280;67281;48.770;11.440;2024-01-27T04:55:12;98954.09;;;15.03;48.76
78073;BME280;67281;48.770;11.440;2024-01-27T04:57:39;98957.22;;;14.95;48.66
78073;BME280;67281;48.770;11.440;2024-01-27T05:00:06;98946.66;;;14.95;49.08
78073;BME280;67281;48.770;11.440;2024-01-27T05:02:40;98954.75;;;14.92;48.99
78073;BME280;67281;48.770;11.440;2024-01-27T05:05:08;98960.03;;;14.92;49.25
78073;BME280;67281;48.770;11.440;2024-01-27T05:07:35;98958.50;;;14.88;49.23
78073;BME280;67281;48.770;11.440;2024-01-27T05:10:01;98970.09;;;14.86;48.88
78073;BME280;67281;48.770;11.440;2024-01-27T05:12:28;98966.25;;;14.91;49.17
78073;BME280;67281;48.770;11.440;2024-01-27T05:14:56;98957.41;;;14.92;48.50
78073;BME280;67281;48.770;11.440;2024-01-27T05:17:23;98963.53;;;14.93;48.73
78073;BME280;67281;48.770;11.440;2024-01-27T05:19:50;98967.09;;;14.92;48.61
78073;BME280;67281;48.770;11.440;2024-01-27T05:22:17;98972.28;;;14.93;48.61
78073;BME280;67281;48.770;11.440;2024-01-27T05:24:44;98967.00;;;14.93;48.42
78073;BME280;67281;48.770;11.440;2024-01-27T05:27:11;98974.66;;;14.98;48.67
78073;BME280;67281;48.770;11.440;2024-01-27T05:29:38;98980.69;;;15.00;48.98
78073;BME280;67281;48.770;11.440;2024-01-27T05:32:05;98978.81;;;15.02;48.82
78073;BME280;67281;48.770;11.440;2024-01-27T05:34:32;98987.00;;;14.97;48.74
78073;BME280;67281;48.770;11.440;2024-01-27T05:36:59;98984.38;;;14.97;48.39
78073;BME280;67281;48.770;11.440;2024-01-27T05:39:26;98980.97;;;14.95;48.74
78073;BME280;67281;48.770;11.440;2024-01-27T05:41:53;98991.34;;;14.98;49.19
78073;BME280;67281;48.770;11.440;2024-01-27T05:44:22;98993.41;;;14.93;48.43
78073;BME280;67281;48.770;11.440;2024-01-27T05:46:49;99006.25;;;14.85;49.00
78073;BME280;67281;48.770;11.440;2024-01-27T05:49:16;99011.59;;;14.84;48.91
78073;BME280;67281;48.770;11.440;2024-01-27T05:51:43;99015.47;;;14.92;48.37
78073;BME280;67281;48.770;11.440;2024-01-27T05:54:10;99019.97;;;14.90;48.22
78073;BME280;67281;48.770;11.440;2024-01-27T05:56:41;99021.22;;;14.85;48.59
78073;BME280;67281;48.770;11.440;2024-01-27T05:59:08;99026.84;;;14.78;48.88
78073;BME280;67281;48.770;11.440;2024-01-27T06:01:35;99032.31;;;14.75;48.88
78073;BME280;67281;48.770;11.440;2024-01-27T06:04:02;99022.44;;;14.79;48.44
78073;BME280;67281;48.770;11.440;2024-01-27T06:06:29;99025.84;;;14.81;48.84
78073;BME280;67281;48.770;11.440;2024-01-27T06:08:56;99028.81;;;14.75;48.41
78073;BME280;67281;48.770;11.440;2024-01-27T06:11:26;99033.44;;;14.86;48.55
78073;BME280;67281;48.770;11.440;2024-01-27T06:13:53;99031.03;;;14.83;49.04
78073;BME280;67281;48.770;11.440;2024-01-27T06:16:22;99031.78;;;14.85;48.22
78073;BME280;67281;48.770;11.440;2024-01-27T06:18:49;99026.38;;;14.86;48.93
78073;BME280;67281;48.770;11.440;2024-01-27T06:21:17;99036.22;;;14.84;48.54
78073;BME280;67281;48.770;11.440;2024-01-27T06:23:44;99038.84;;;14.84;48.37
78073;BME280;67281;48.770;11.440;2024-01-27T06:26:13;99048.72;;;14.81;48.70
78073;BME280;67281;48.770;11.440;2024-01-27T06:28:40;99043.38;;;14.82;48.38
78073;BME280;67281;48.770;11.440;2024-01-27T06:31:07;99044.13;;;14.84;48.59
78073;BME280;67281;48.770;11.440;2024-01-27T06:33:34;99048.63;;;14.82;48.82
78073;BME280;67281;48.770;11.440;2024-01-27T06:36:02;99050.69;;;14.77;48.23
78073;BME280;67281;48.770;11.440;2024-01-27T06:38:29;99056.25;;;14.72;48.36
78073;BME280;67281;48.770;11.440;2024-01-27T06:40:58;99054.28;;;14.76;48.47
78073;BME280;67281;48.770;11.440;2024-01-27T06:43:25;99052.06;;;14.68;48.72
78073;BME280;67281;48.770;11.440;2024-01-27T06:45:52;99054.88;;;14.65;48.47
78073;BME280;67281;48.770;11.440;2024-01-27T06:48:19;99056.00;;;14.61;48.62
78073;BME280;67281;48.770;11.440;2024-01-27T06:50:46;99058.78;;;14.74;48.02
78073;BME280;67281;48.770;11.440;2024-01-27T06:53:13;99066.44;;;14.78;48.42
78073;BME280;67281;48.770;11.440;2024-01-27T06:55:40;99065.00;;;14.73;48.08
78073;BME280;67281;48.770;11.440;2024-01-27T06:58:09;99066.28;;;14.66;48.49
78073;BME280;67281;48.770;11.440;2024-01-27T07:00:36;99054.97;;;14.64;49.10
78073;BME280;67281;48.770;11.440;2024-01-27T07:03:04;99053.97;;;14.66;48.55
78073;BME280;67281;48.770;11.440;2024-01-27T07:05:31;99060.75;;;14.70;48.58
78073;BME280;67281;48.770;11.440;2024-01-27T07:07:59;99060.56;;;14.73;48.45
78073;BME280;67281;48.770;11.440;2024-01-27T07:10:27;99061.44;;;14.74;48.48
78073;BME280;67281;48.770;11.440;2024-01-27T07:12:54;99064.91;;;14.74;48.13
78073;BME280;67281;48.770;11.440;2024-01-27T07:15:20;99064.91;;;14.74;48.29
78073;BME280;67281;48.770;11.440;2024-01-27T07:17:48;99066.03;;;14.70;49.15
78073;BME280;67281;48.770;11.440;2024-01-27T07:20:15;99073.59;;;14.76;48.13
78073;BME280;67281;48.770;11.440;2024-01-27T07:22:42;99068.72;;;14.85;48.22
78073;BME280;67281;48.770;11.440;2024-01-27T07:25:09;99082.78;;;14.85;48.19
78073;BME280;67281;48.770;11.440;2024-01-27T07:27:37;99093.13;;;14.88;48.55
78073;BME280;67281;48.770;11.440;2024-01-27T07:30:04;99094.72;;;14.91;48.39
78073;BME280;67281;48.770;11.440;2024-01-27T07:32:32;99087.66;;;14.91;48.68
78073;BME280;67281;48.770;11.440;2024-01-27T07:34:59;99091.84;;;14.95;48.36
78073;BME280;67281;48.770;11.440;2024-01-27T07:37:25;99094.28;;;14.98;48.08
78073;BME280;67281;48.770;11.440;2024-01-27T07:39:52;99097.78;;;14.99;48.36
78073;BME280;67281;48.770;11.440;2024-01-27T07:42:19;99099.47;;;15.00;48.13
78073;BME280;67281;48.770;11.440;2024-01-27T07:44:46;99088.94;;;15.00;48.31
78073;BME280;67281;48.770;11.440;2024-01-27T07:47:13;99092.31;;;15.02;48.29
78073;BME280;67281;48.770;11.440;2024-01-27T07:49:40;99086.94;;;15.03;48.75
78073;BME280;67281;48.770;11.440;2024-01-27T07:52:07;99083.28;;;15.06;48.03
78073;BME280;67281;48.770;11.440;2024-01-27T07:54:34;99087.63;;;15.07;48.23
78073;BME280;67281;48.770;11.440;2024-01-27T07:57:06;99091.03;;;15.09;48.56
78073;BME280;67281;48.770;11.440;2024-01-27T07:59:33;99083.00;;;15.10;47.96
78073;BME280;67281;48.770;11.440;2024-01-27T08:02:00;99090.94;;;15.10;47.93
78073;BME280;67281;48.770;11.440;2024-01-27T08:04:27;99087.34;;;15.11;48.01
78073;BME280;67281;48.770;11.440;2024-01-27T08:06:54;99094.34;;;15.12;48.29
78073;BME280;67281;48.770;11.440;2024-01-27T08:09:21;99096.81;;;15.16;48.21
78073;BME280;67281;48.770;11.440;2024-01-27T08:11:48;99106.41;;;15.17;47.84
78073;BME280;67281;48.770;11.440;2024-01-27T08:14:18;99108.13;;;15.18;48.05
78073;BME280;67281;48.770;11.440;2024-01-27T08:16:46;99109.06;;;15.17;48.17
78073;BME280;67281;48.770;11.440;2024-01-27T08:19:13;99110.69;;;15.19;48.30
78073;BME280;67281;48.770;11.440;2024-01-27T08:21:47;99104.19;;;15.25;47.84
78073;BME280;67281;48.770;11.440;2024-01-27T08:24:14;99110.22;;;15.27;47.50
78073;BME280;67281;48.770;11.440;2024-01-27T08:26:41;99109.38;;;15.26;47.39
78073;BME280;67281;48.770;11.440;2024-01-27T08:29:09;99111.84;;;15.29;48.03
78073;BME280;67281;48.770;11.440;2024-01-27T08:31:36;99121.38;;;15.32;47.70
78073;BME280;67281;48.770;11.440;2024-01-27T08:34:05;99120.03;;;15.25;47.46
78073;BME280;67281;48.770;11.440;2024-01-27T08:36:34;99119.00;;;15.27;47.72
78073;BME280;67281;48.770;11.440;2024-01-27T08:39:01;99120.50;;;15.31;47.36
78073;BME280;67281;48.770;11.440;2024-01-27T08:41:28;99116.84;;;15.34;47.69
78073;BME280;67281;48.770;11.440;2024-01-27T08:43:55;99114.03;;;15.37;47.16
78073;BME280;67281;48.770;11.440;2024-01-27T08:46:22;99114.59;;;15.42;47.71
78073;BME280;67281;48.770;11.440;2024-01-27T08:48:49;99115.44;;;15.42;47.24
78073;BME280;67281;48.770;11.440;2024-01-27T08:51:16;99121.41;;;15.46;47.15
78073;BME280;67281;48.770;11.440;2024-01-27T08:53:44;99125.06;;;15.43;47.28
78073;BME280;67281;48.770;11.440;2024-01-27T08:56:18;99120.56;;;15.45;47.37
78073;BME280;67281;48.770;11.440;2024-01-27T08:58:45;99119.34;;;15.51;47.16
78073;BME280;67281;48.770;11.440;2024-01-27T09:01:16;99114.81;;;15.53;46.95
78073;BME280;67281;48.770;11.440;2024-01-27T09:03:44;99119.91;;;15.56;47.18
78073;BME280;67281;48.770;11.440;2024-01-27T09:06:11;99112.78;;;15.58;46.86
78073;BME280;67281;48.770;11.440;2024-01-27T09:08:41;99112.38;;;15.64;47.12
78073;BME280;67281;48.770;11.440;2024-01-27T09:11:08;99118.41;;;15.66;46.51
78073;BME280;67281;48.770;11.440;2024-01-27T09:13:36;99121.72;;;15.70;47.19
78073;BME280;67281;48.770;11.440;2024-01-27T09:16:03;99120.97;;;15.68;46.85
78073;BME280;67281;48.770;11.440;2024-01-27T09:18:30;99133.25;;;15.69;46.24
78073;BME280;67281;48.770;11.440;2024-01-27T09:20:57;99133.31;;;15.67;46.79
78073;BME280;67281;48.770;11.440;2024-01-27T09:23:24;99135.78;;;15.70;47.30
78073;BME280;67281;48.770;11.440;2024-01-27T09:25:51;99142.00;;;15.69;46.84
78073;BME280;67281;48.770;11.440;2024-01-27T09:28:18;99146.75;;;15.78;46.70
78073;BME280;67281;48.770;11.440;2024-01-27T09:30:45;99146.47;;;15.83;47.03
78073;BME280;67281;48.770;11.440;2024-01-27T09:33:12;99148.94;;;15.86;46.84
78073;BME280;67281;48.770;11.440;2024-01-27T09:35:39;99156.66;;;15.89;46.46
78073;BME280;67281;48.770;11.440;2024-01-27T09:38:06;99155.72;;;15.90;46.57
78073;BME280;67281;48.770;11.440;2024-01-27T09:40:39;99149.41;;;15.93;46.57
78073;BME280;67281;48.770;11.440;2024-01-27T09:43:07;99144.22;;;15.91;46.68
78073;BME280;67281;48.770;11.440;2024-01-27T09:45:36;99149.41;;;15.93;46.82
78073;BME280;67281;48.770;11.440;2024-01-27T09:48:05;99146.47;;;15.97;46.09
78073;BME280;67281;48.770;11.440;2024-01-27T09:50:42;99150.91;;;15.97;47.01
78073;BME280;67281;48.770;11.440;2024-01-27T09:53:09;99155.94;;;16.01;46.75
78073;BME280;67281;48.770;11.440;2024-01-27T09:55:37;99164.53;;;16.05;46.73
78073;BME280;67281;48.770;11.440;2024-01-27T09:58:04;99162.44;;;16.10;46.36
78073;BME280;67281;48.770;11.440;2024-01-27T10:00:33;99154.50;;;16.10;46.68
78073;BME280;67281;48.770;11.440;2024-01-27T10:03:03;99165.09;;;16.10;46.28
78073;BME280;67281;48.770;11.440;2024-01-27T10:05:32;99156.97;;;16.13;46.15
78073;BME280;67281;48.770;11.440;2024-01-27T10:07:59;99158.66;;;16.14;46.22
78073;BME280;67281;48.770;11.440;2024-01-27T10:10:26;99154.13;;;16.16;46.59
78073;BME280;67281;48.770;11.440;2024-01-27T10:12:55;99150.34;;;16.20;45.80
78073;BME280;67281;48.770;11.440;2024-01-27T10:15:23;99145.81;;;16.22;46.20
78073;BME280;67281;48.770;11.440;2024-01-27T10:17:50;99148.28;;;16.25;46.41
78073;BME280;67281;48.770;11.440;2024-01-27T10:20:17;99148.19;;;16.27;46.52
78073;BME280;67281;48.770;11.440;2024-01-27T10:22:46;99147.97;;;16.30;46.34
78073;BME280;67281;48.770;11.440;2024-01-27T10:25:13;99144.19;;;16.34;45.61
78073;BME280;67281;48.770;11.440;2024-01-27T10:27:41;99152.84;;;16.36;45.50
78073;BME280;67281;48.770;11.440;2024-01-27T10:30:16;99140.38;;;16.38;46.01
78073;BME280;67281;48.770;11.440;2024-01-27T10:32:55;99142.84;;;16.41;46.32
78073;BME280;67281;48.770;11.440;2024-01-27T10:35:28;99145.38;;;16.42;45.65
78073;BME280;67281;48.770;11.440;2024-01-27T10:37:56;99135.47;;;16.46;45.15
78073;BME280;67281;48.770;11.440;2024-01-27T10:40:25;99132.72;;;16.48;44.98
78073;BME280;67281;48.770;11.440;2024-01-27T10:43:07;99133.47;;;16.50;45.95
78073;BME280;67281;48.770;11.440;2024-01-27T10:45:39;99132.41;;;16.52;45.01
78073;BME280;67281;48.770;11.440;2024-01-27T10:48:09;99130.44;;;16.56;45.86
78073;BME280;67281;48.770;11.440;2024-01-27T10:50:39;99134.78;;;16.57;44.79
78073;BME280;67281;48.770;11.440;2024-01-27T10:53:22;99120.50;;;16.59;45.16
78073;BME280;67281;48.770;11.440;2024-01-27T10:56:03;99123.78;;;16.63;45.09
78073;BME280;67281;48.770;11.440;2024-01-27T10:58:33;99121.25;;;16.61;45.04
78073;BME280;67281;48.770;11.440;2024-01-27T11:01:10;99120.88;;;16.67;44.75
78073;BME280;67281;48.770;11.440;2024-01-27T11:03:40;99131.28;;;16.70;45.40
78073;BME280;67281;48.770;11.440;2024-01-27T11:06:07;99125.13;;;16.70;45.14
78073;BME280;67281;48.770;11.440;2024-01-27T11:08:36;99125.13;;;16.70;45.41
78073;BME280;67281;48.770;11.440;2024-01-27T11:11:09;99122.38;;;16.71;45.75
78073;BME280;67281;48.770;11.440;2024-01-27T11:13:36;99126.63;;;16.74;45.52
78073;BME280;67281;48.770;11.440;2024-01-27T11:16:04;99120.38;;;16.75;45.30
78073;BME280;67281;48.770;11.440;2024-01-27T11:18:32;99111.41;;;16.78;45.74
78073;BME280;67281;48.770;11.440;2024-01-27T11:20:59;99121.13;;;16.77;45.51
78073;BME280;67281;48.770;11.440;2024-01-27T11:23:34;99115.53;;;16.82;45.45
78073;BME280;67281;48.770;11.440;2024-01-27T11:26:06;99111.00;;;16.84;45.74
78073;BME280;67281;48.770;11.440;2024-01-27T11:28:33;99113.53;;;16.85;45.87
78073;BME280;67281;48.770;11.440;2024-01-27T11:31:04;99122.25;;;16.87;45.64
78073;BME280;67281;48.770;11.440;2024-01-27T11:33:31;99112.41;;;16.89;45.63
78073;BME280;67281;48.770;11.440;2024-01-27T11:36:03;99106.06;;;16.92;45.18
78073;BME280;67281;48.770;11.440;2024-01-27T11:38:32;99109.34;;;16.95;45.78
78073;BME280;67281;48.770;11.440;2024-01-27T11:41:02;99106.59;;;16.97;45.37
78073;BME280;67281;48.770;11.440;2024-01-27T11:43:36;99094.19;;;16.97;45.36
78073;BME280;67281;48.770;11.440;2024-01-27T11:46:07;99097.50;;;17.01;45.63
78073;BME280;67281;48.770;11.440;2024-01-27T11:48:41;99095.50;;;17.04;45.18
78073;BME280;67281;48.770;11.440;2024-01-27T11:51:11;99092.66;;;17.07;45.10
78073;BME280;67281;48.770;11.440;2024-01-27T11:53:38;99094.31;;;17.08;45.32
78073;BME280;67281;48.770;11.440;2024-01-27T11:56:06;99092.41;;;17.11;45.32
78073;BME280;67281;48.770;11.440;2024-01-27T11:58:33;99095.81;;;17.13;45.28
78073;BME280;67281;48.770;11.440;2024-01-27T12:01:02;99102.25;;;16.69;46.04
78073;BME280;67281;48.770;11.440;2024-01-27T12:03:29;99091.66;;;17.08;44.84
78073;BME280;67281;48.770;11.440;2024-01-27T12:05:58;99095.59;;;17.16;44.74
78073;BME280;67281;48.770;11.440;2024-01-27T12:08:28;99097.94;;;17.20;45.07
78073;BME280;67281;48.770;11.440;2024-01-27T12:10:55;99100.28;;;17.25;45.16
78073;BME280;67281;48.770;11.440;2024-01-27T12:13:32;99096.88;;;17.23;45.29
78073;BME280;67281;48.770;11.440;2024-01-27T12:16:11;99101.34;;;17.22;44.82
78073;BME280;67281;48.770;11.440;2024-01-27T12:18:54;99096.78;;;17.24;44.94
78073;BME280;67281;48.770;11.440;2024-01-27T12:21:30;99094.13;;;17.24;44.65
78073;BME280;67281;48.770;11.440;2024-01-27T12:24:04;99089.88;;;17.22;45.35
78073;BME280;67281;48.770;11.440;2024-01-27T12:26:31;99081.84;;;17.23;45.58
78073;BME280;67281;48.770;11.440;2024-01-27T12:28:59;99092.44;;;17.23;45.80
78073;BME280;67281;48.770;11.440;2024-01-27T12:31:37;99096.78;;;17.24;45.57
78073;BME280;67281;48.770;11.440;2024-01-27T12:34:08;99099.53;;;17.23;45.66
78073;BME280;67281;48.770;11.440;2024-01-27T12:36:42;99090.84;;;17.21;45.39
78073;BME280;67281;48.770;11.440;2024-01-27T12:39:10;99097.94;;;17.20;45.30
78073;BME280;67281;48.770;11.440;2024-01-27T12:41:39;99095.38;;;17.19;45.62
78073;BME280;67281;48.770;11.440;2024-01-27T12:44:09;99096.44;;;17.16;45.11
78073;BME280;67281;48.770;11.440;2024-01-27T12:46:37;99089.34;;;17.17;45.78
78073;BME280;67281;48.770;11.440;2024-01-27T12:49:04;99090.19;;;17.17;45.42
78073;BME280;67281;48.770;11.440;2024-01-27T12:51:31;99085.66;;;17.19;45.36
78073;BME280;67281;48.770;11.440;2024-01-27T12:53:58;99090.09;;;17.19;45.66